Time;durP1;ratioP1;P1;durP2;ratioP2;P2;SDS_P1;SDS_P2;PMS_P1;PMS_P2;Temp;Humidity;BMP_temperature;BMP_pressure;BME280_temperature;BME280_humidity;BME280_pressure;Samples;Min_cycle;Max_cycle;Signal;HPM_P1;HPM_P2
2022/09/02 00:02:15;;;;;;;5.3;4.8;;;;;;;;;;;;;
2022/09/02 00:04:41;;;;;;;5.2;4.7;;;;;;;;;;;;;
2022/09/02 00:07:06;;;;;;;4.9;4.5;;;;;;;;;;;;;
2022/09/02 00:09:32;;;;;;;7.5;4.5;;;;;;;;;;;;;
2022/09/02 00:11:57;;;;;;;4.7;4.2;;;;;;;;;;;;;
2022/09/02 00:14:22;;;;;;;5.2;4.2;;;;;;;;;;;;;
2022/09/02 00:16:49;;;;;;;4.8;4.2;;;;;;;;;;;;;
2022/09/02 00:19:14;;;;;;;4.4;4;;;;;;;;;;;;;
2022/09/02 00:21:39;;;;;;;4.7;4.3;;;;;;;;;;;;;
2022/09/02 00:24:06;;;;;;;4.3;3.9;;;;;;;;;;;;;
2022/09/02 00:26:30;;;;;;;5;4.6;;;;;;;;;;;;;
2022/09/02 00:28:56;;;;;;;5.2;4.4;;;;;;;;;;;;;
2022/09/02 00:31:21;;;;;;;4.9;4.4;;;;;;;;;;;;;
2022/09/02 00:33:49;;;;;;;7.4;6.4;;;;;;;;;;;;;
2022/09/02 00:36:12;;;;;;;5;4.5;;;;;;;;;;;;;
2022/09/02 00:38:38;;;;;;;5.3;4.4;;;;;;;;;;;;;
2022/09/02 00:41:04;;;;;;;5.2;4.7;;;;;;;;;;;;;
2022/09/02 00:43:31;;;;;;;5.2;4.7;;;;;;;;;;;;;
2022/09/02 00:45:56;;;;;;;5.3;4.8;;;;;;;;;;;;;
2022/09/02 00:48:21;;;;;;;6.9;5.1;;;;;;;;;;;;;
2022/09/02 00:50:47;;;;;;;5.1;4.4;;;;;;;;;;;;;
2022/09/02 00:53:12;;;;;;;5.1;4.7;;;;;;;;;;;;;
2022/09/02 00:55:37;;;;;;;7;6.3;;;;;;;;;;;;;
2022/09/02 00:58:02;;;;;;;5.3;4.8;;;;;;;;;;;;;
2022/09/02 01:00:28;;;;;;;4.9;4.5;;;;;;;;;;;;;
2022/09/02 01:02:53;;;;;;;5.9;4.8;;;;;;;;;;;;;
2022/09/02 01:05:18;;;;;;;7;5.5;;;;;;;;;;;;;
2022/09/02 01:07:43;;;;;;;6.3;5.7;;;;;;;;;;;;;
2022/09/02 01:10:09;;;;;;;5.4;4.9;;;;;;;;;;;;;
2022/09/02 01:12:34;;;;;;;5.6;4.3;;;;;;;;;;;;;
2022/09/02 01:14:59;;;;;;;5.3;4.9;;;;;;;;;;;;;
2022/09/02 01:17:25;;;;;;;5.5;4.9;;;;;;;;;;;;;
2022/09/02 01:19:49;;;;;;;5.7;5;;;;;;;;;;;;;
2022/09/02 01:22:17;;;;;;;6.8;6.1;;;;;;;;;;;;;
2022/09/02 01:24:42;;;;;;;5.2;4.5;;;;;;;;;;;;;
2022/09/02 01:27:07;;;;;;;5.3;4.7;;;;;;;;;;;;;
2022/09/02 01:29:32;;;;;;;5.3;4.8;;;;;;;;;;;;;
2022/09/02 01:31:58;;;;;;;4.9;4.4;;;;;;;;;;;;;
2022/09/02 01:34:23;;;;;;;4.7;4.3;;;;;;;;;;;;;
2022/09/02 01:36:51;;;;;;;5.2;4.7;;;;;;;;;;;;;
2022/09/02 01:39:16;;;;;;;5.2;4.5;;;;;;;;;;;;;
2022/09/02 01:41:41;;;;;;;6.7;5.6;;;;;;;;;;;;;
2022/09/02 01:44:07;;;;;;;5.9;5.3;;;;;;;;;;;;;
2022/09/02 01:46:32;;;;;;;6.4;5.8;;;;;;;;;;;;;
2022/09/02 01:48:57;;;;;;;6.2;5.6;;;;;;;;;;;;;
2022/09/02 01:51:24;;;;;;;6.1;5.5;;;;;;;;;;;;;
2022/09/02 01:53:49;;;;;;;8;5.1;;;;;;;;;;;;;
2022/09/02 01:56:15;;;;;;;6.2;5;;;;;;;;;;;;;
2022/09/02 01:58:40;;;;;;;5.8;5.3;;;;;;;;;;;;;
2022/09/02 02:01:07;;;;;;;6.1;5.5;;;;;;;;;;;;;
2022/09/02 02:03:32;;;;;;;5.8;5.2;;;;;;;;;;;;;
2022/09/02 02:05:58;;;;;;;5.7;5.2;;;;;;;;;;;;;
2022/09/02 02:08:23;;;;;;;5.6;5.1;;;;;;;;;;;;;
2022/09/02 02:10:48;;;;;;;5.9;5.3;;;;;;;;;;;;;
2022/09/02 02:13:13;;;;;;;6.7;5.5;;;;;;;;;;;;;
2022/09/02 02:15:40;;;;;;;5.5;5;;;;;;;;;;;;;
2022/09/02 02:18:05;;;;;;;5.6;5;;;;;;;;;;;;;
2022/09/02 02:20:31;;;;;;;5.5;5;;;;;;;;;;;;;
2022/09/02 02:22:55;;;;;;;6.6;5.6;;;;;;;;;;;;;
2022/09/02 02:25:22;;;;;;;5.9;5.2;;;;;;;;;;;;;
2022/09/02 02:27:48;;;;;;;6.8;5.5;;;;;;;;;;;;;
2022/09/02 02:30:13;;;;;;;5.3;4.8;;;;;;;;;;;;;
2022/09/02 02:32:38;;;;;;;5.2;4.7;;;;;;;;;;;;;
2022/09/02 02:35:04;;;;;;;5.2;4.7;;;;;;;;;;;;;
2022/09/02 02:37:44;;;;;;;4.8;4.3;;;;;;;;;;;;;
2022/09/02 02:39:54;;;;;;;5.9;4.9;;;;;;;;;;;;;
2022/09/02 02:42:19;;;;;;;5.4;4.9;;;;;;;;;;;;;
2022/09/02 02:44:44;;;;;;;5.4;4.9;;;;;;;;;;;;;
2022/09/02 02:47:09;;;;;;;5.6;5;;;;;;;;;;;;;
2022/09/02 02:49:35;;;;;;;5.9;5.3;;;;;;;;;;;;;
2022/09/02 02:52:00;;;;;;;5.9;5.1;;;;;;;;;;;;;
2022/09/02 02:54:25;;;;;;;5.6;4.9;;;;;;;;;;;;;
2022/09/02 02:56:50;;;;;;;5.8;5.3;;;;;;;;;;;;;
2022/09/02 02:59:16;;;;;;;6.4;5.2;;;;;;;;;;;;;
2022/09/02 03:01:41;;;;;;;5.7;5.2;;;;;;;;;;;;;
2022/09/02 03:04:08;;;;;;;5.8;5.2;;;;;;;;;;;;;
2022/09/02 03:06:34;;;;;;;8.5;5.5;;;;;;;;;;;;;
2022/09/02 03:09:00;;;;;;;8;5.7;;;;;;;;;;;;;
2022/09/02 03:11:27;;;;;;;6.2;5.6;;;;;;;;;;;;;
2022/09/02 03:13:52;;;;;;;5.7;5.2;;;;;;;;;;;;;
2022/09/02 03:16:18;;;;;;;6.8;5.4;;;;;;;;;;;;;
2022/09/02 03:18:43;;;;;;;5.5;5;;;;;;;;;;;;;
2022/09/02 03:21:09;;;;;;;5.7;5.2;;;;;;;;;;;;;
2022/09/02 03:23:34;;;;;;;6.8;5.5;;;;;;;;;;;;;
2022/09/02 03:25:59;;;;;;;5.5;4.9;;;;;;;;;;;;;
2022/09/02 03:28:25;;;;;;;6;4.9;;;;;;;;;;;;;
2022/09/02 03:30:50;;;;;;;5.2;4.7;;;;;;;;;;;;;
2022/09/02 03:33:16;;;;;;;5.2;4.7;;;;;;;;;;;;;
2022/09/02 03:35:41;;;;;;;5.3;4.8;;;;;;;;;;;;;
2022/09/02 03:38:06;;;;;;;5;4.6;;;;;;;;;;;;;
2022/09/02 03:40:31;;;;;;;5.3;4.8;;;;;;;;;;;;;
2022/09/02 03:42:57;;;;;;;5.2;4.7;;;;;;;;;;;;;
2022/09/02 03:45:24;;;;;;;5;4.5;;;;;;;;;;;;;
2022/09/02 03:47:53;;;;;;;5.1;4.7;;;;;;;;;;;;;
2022/09/02 03:50:14;;;;;;;4.8;4.4;;;;;;;;;;;;;
2022/09/02 03:52:40;;;;;;;5.2;4.7;;;;;;;;;;;;;
2022/09/02 03:55:05;;;;;;;5.5;5;;;;;;;;;;;;;
2022/09/02 03:57:31;;;;;;;5;4.6;;;;;;;;;;;;;
2022/09/02 03:59:57;;;;;;;6.4;5.2;;;;;;;;;;;;;
2022/09/02 04:02:33;;;;;;;5.9;4.9;;;;;;;10.91;94.5293;937.2236;;;;
2022/09/02 04:05:03;;;;;;;5.5;5;;;;;;;10.98;93.81152;937.2527;;;;
2022/09/02 04:07:28;;;;;;;5.5;5;;;;;;;10.78;95.06152;937.2408;;;;
2022/09/02 04:09:58;;;;;;;6.6;6;;;;;;;10.55;96.71094;937.1799;;;;
2022/09/02 04:12:23;;;;;;;6.7;6;;;;;;;10.65;96.53906;937.1897;;;;
2022/09/02 04:14:52;;;;;;;6.5;5.9;;;;;;;10.69;96.04395;937.1614;;;;
2022/09/02 04:17:17;;;;;;;6.8;5.7;;;;;;;10.64;96.30859;937.1976;;;;
2022/09/02 04:19:46;;;;;;;6.1;5.5;;;;;;;10.8;95.47656;937.2545;;;;
2022/09/02 04:22:12;;;;;;;8.6;5.5;;;;;;;10.66;95.3877;937.1667;;;;
2022/09/02 04:24:41;;;;;;;6.1;5.5;;;;;;;10.61;95.74121;937.1883;;;;
2022/09/02 04:27:06;;;;;;;8.9;6.3;;;;;;;10.62;95.50488;937.1394;;;;
2022/09/02 04:29:32;;;;;;;7.6;6.3;;;;;;;10.62;95.83398;937.1903;;;;
2022/09/02 04:31:56;;;;;;;6.2;5.6;;;;;;;10.77;94.73535;937.1769;;;;
2022/09/02 04:34:25;;;;;;;8.3;5.9;;;;;;;10.74;94.63965;937.1998;;;;
2022/09/02 04:36:51;;;;;;;6;5;;;;;;;10.84;93.90723;937.1746;;;;
2022/09/02 04:39:16;;;;;;;5.1;4.6;;;;;;;10.75;94.01172;937.1752;;;;
2022/09/02 04:41:44;;;;;;;6.1;4.7;;;;;;;10.74;93.56641;937.1688;;;;
2022/09/02 04:44:09;;;;;;;5.8;4.8;;;;;;;10.7;93.75293;937.21;;;;
2022/09/02 04:46:39;;;;;;;5.5;5;;;;;;;10.47;94.78418;937.1586;;;;
2022/09/02 04:49:08;;;;;;;5.9;4.8;;;;;;;10.3;96.40332;937.211;;;;
2022/09/02 04:51:33;;;;;;;5.9;5.3;;;;;;;10.22;97.38867;937.1697;;;;
2022/09/02 04:54:01;;;;;;;5.8;5.1;;;;;;;10.38;97.06055;937.2045;;;;
2022/09/02 04:56:26;;;;;;;5.1;4.6;;;;;;;10.44;96.51563;937.1688;;;;
2022/09/02 04:58:54;;;;;;;6.5;5.2;;;;;;;10.6;95.4668;937.1333;;;;
2022/09/02 05:01:19;;;;;;;5.5;5;;;;;;;10.59;95.31641;937.1166;;;;
2022/09/02 05:03:48;;;;;;;5.1;4.6;;;;;;;10.66;94.59961;937.1317;;;;
2022/09/02 05:06:13;;;;;;;6.3;5;;;;;;;10.72;94.40527;937.1097;;;;
2022/09/02 05:08:42;;;;;;;6;5.4;;;;;;;10.87;94.17676;937.1564;;;;
2022/09/02 05:11:06;;;;;;;5.2;4.7;;;;;;;10.92;93.90234;937.195;;;;
2022/09/02 05:13:35;;;;;;;7.1;4.5;;;;;;;10.98;93.13867;937.1858;;;;
2022/09/02 05:16:00;;;;;;;7;4.6;;;;;;;10.93;93.4248;937.187;;;;
2022/09/02 05:18:25;;;;;;;4.9;4.5;;;;;;;10.79;94.11328;937.1731;;;;
2022/09/02 05:20:53;;;;;;;5.6;5.1;;;;;;;10.65;94.99707;937.1714;;;;
2022/09/02 05:23:18;;;;;;;5.8;5.2;;;;;;;10.63;95.59863;937.1841;;;;
2022/09/02 05:25:47;;;;;;;7.6;5.6;;;;;;;10.79;94.74316;937.1795;;;;
2022/09/02 05:28:15;;;;;;;7.3;5;;;;;;;10.64;95.16602;937.1666;;;;
2022/09/02 05:30:40;;;;;;;5.5;5;;;;;;;10.79;94.53711;937.1731;;;;
2022/09/02 05:33:09;;;;;;;6.5;4.9;;;;;;;11;93.45117;937.1644;;;;
2022/09/02 05:35:34;;;;;;;6.1;4.9;;;;;;;11.15;92.84277;937.1089;;;;
2022/09/02 05:38:03;;;;;;;6.2;5.2;;;;;;;11.25;92.26855;937.1161;;;;
2022/09/02 05:40:28;;;;;;;5.2;4.7;;;;;;;11.58;93.39258;937.1266;;;;
2022/09/02 05:43:00;;;;;;;5.9;4.9;;;;;;;12.23;92.3291;937.1144;;;;
2022/09/02 07:29:21;;;;;;;4.2;3.4;;;;;;;20.82;58.43457;936.663;;;;
2022/09/02 07:31:50;;;;;;;2.4;2.2;;;;;;;20.78;58.39258;936.6697;;;;
2022/09/02 07:57:49;;;;;;;2.4;2.2;;;;;;;24.15;49.79297;936.5467;;;;
2022/09/02 08:00:15;;;;;;;2.6;1.9;;;;;;;23.61;48.48535;936.5221;;;;
2022/09/02 08:02:49;;;;;;;2;1.9;;;;;;;22.19;54.34668;936.5505;;;;
2022/09/02 08:05:21;;;;;;;2;1.8;;;;;;;24.87;47.1377;936.5767;;;;
2022/09/02 08:07:50;;;;;;;2.2;2;;;;;;;24.18;48.67773;936.5779;;;;
2022/09/02 08:10:19;;;;;;;2.3;2;;;;;;;24.69;47.60156;936.5736;;;;
2022/09/02 08:12:43;;;;;;;3;1.9;;;;;;;26.13;44.13477;936.6233;;;;
2022/09/02 08:15:09;;;;;;;2.7;1.8;;;;;;;25.2;46.59277;936.6111;;;;
2022/09/02 08:17:39;;;;;;;2.9;2.2;;;;;;;25.96;45.1582;936.562;;;;
2022/09/02 08:22:23;;;;;;;2.9;1.9;;;;;;;26.3;46.29395;936.6211;;;;
2022/09/02 08:24:55;;;;;;;2.1;1.9;;;;;;;25.03;47.67285;936.5377;;;;
2022/09/02 08:27:21;;;;;;;3.8;2.1;;;;;;;26.07;45.11133;936.5904;;;;
2022/09/02 08:29:53;;;;;;;2.4;2.2;;;;;;;27.07;43.00684;936.5514;;;;
2022/09/02 08:32:22;;;;;;;2.1;2;;;;;;;25.51;46.89648;936.5341;;;;
2022/09/02 08:34:50;;;;;;;2.3;2.1;;;;;;;26.17;47.02539;936.5887;;;;
2022/09/02 08:37:19;;;;;;;2.3;2.1;;;;;;;26.68;44.31934;936.5742;;;;
2022/09/02 08:39:45;;;;;;;2.2;2;;;;;;;27.94;38.98047;936.543;;;;
2022/09/02 08:42:12;;;;;;;2;1.8;;;;;;;27.18;41.77246;936.5204;;;;
2022/09/02 08:44:40;;;;;;;1.8;1.7;;;;;;;26.28;44.74219;936.5739;;;;
2022/09/02 08:47:06;;;;;;;2.2;2;;;;;;;27.13;43.08496;936.5165;;;;
2022/09/02 08:49:33;;;;;;;2;1.9;;;;;;;27.83;40.43164;936.5505;;;;
2022/09/02 08:52:01;;;;;;;2.5;2.3;;;;;;;27.33;41.70313;936.5514;;;;
2022/09/02 08:54:26;;;;;;;2.2;2;;;;;;;27.34;41.30176;936.5538;;;;
2022/09/02 08:56:51;;;;;;;2.2;2;;;;;;;27.7;41.91504;936.5686;;;;
2022/09/02 08:59:17;;;;;;;2.6;2.1;;;;;;;26.71;45.69629;936.5069;;;;
2022/09/02 09:04:23;;;;;;;2.1;1.9;;;;;;;26.97;42.94922;936.4641;;;;
2022/09/02 09:06:59;;;;;;;2.2;2;;;;;;;27.46;41.12207;936.4821;;;;
2022/09/02 09:09:47;;;;;;;4.1;2.3;;;;;;;28.03;39.92676;936.4592;;;;
2022/09/02 09:12:14;;;;;;;2;1.9;;;;;;;26.81;43.63281;936.4615;;;;
2022/09/02 09:16:02;;;;;;;2;1.8;;;;;;;26.21;45.24414;936.4825;;;;
2022/09/02 09:19:43;;;;;;;2.3;2.1;;;;;;;24.91;48.06152;936.3808;;;;
2022/09/02 09:21:41;;;;;;;2.7;2.5;;;;;;;23.81;53.49707;936.4672;;;;
2022/09/02 09:24:18;;;;;;;2.4;2.2;;;;;;;23.37;51.88184;936.4344;;;;
2022/09/02 09:26:43;;;;;;;3;2.3;;;;;;;22.73;55;936.4246;;;;
2022/09/02 09:29:08;;;;;;;2.3;2.1;;;;;;;23.11;54.7168;936.4622;;;;
2022/09/02 09:31:36;;;;;;;2.5;2.3;;;;;;;23.64;52.18262;936.4008;;;;
2022/09/02 09:34:03;;;;;;;2.6;2.4;;;;;;;23.84;50.46387;936.3369;;;;
2022/09/02 09:36:36;;;;;;;3.1;2.5;;;;;;;22.73;56.2793;936.3923;;;;
2022/09/02 09:39:03;;;;;;;2.8;2.6;;;;;;;22.47;53.92383;936.3586;;;;
2022/09/02 09:42:08;;;;;;;3.3;2.6;;;;;;;22.55;55.87012;936.3884;;;;
2022/09/02 09:44:34;;;;;;;2.6;2.4;;;;;;;22.82;56.32617;936.3873;;;;
2022/09/02 09:46:58;;;;;;;2.9;2.7;;;;;;;22.39;56.96387;936.3972;;;;
2022/09/02 09:49:24;;;;;;;3;2.7;;;;;;;22.52;56.82813;936.3436;;;;
2022/09/02 09:51:53;;;;;;;2.7;2.2;;;;;;;22.66;55.12012;936.3195;;;;
2022/09/02 09:54:20;;;;;;;3;2.8;;;;;;;22.03;58.37109;936.3528;;;;
2022/09/02 09:56:45;;;;;;;2.4;2.2;;;;;;;22.23;58.11523;936.2851;;;;
2022/09/02 09:59:13;;;;;;;3.9;2.8;;;;;;;22.66;55.94238;936.2419;;;;
2022/09/02 10:01:50;;;;;;;2.9;2.7;;;;;;;22.81;56.3252;936.2145;;;;
2022/09/02 10:04:06;;;;;;;2.6;2.4;;;;;;;23.3;53.61328;936.1998;;;;
2022/09/02 10:06:36;;;;;;;3.3;2.7;;;;;;;23.53;53.18262;936.2014;;;;
2022/09/02 10:09:07;;;;;;;3;2.7;;;;;;;23.32;54.20313;936.1716;;;;
2022/09/02 10:11:35;;;;;;;2.8;2.4;;;;;;;23.75;52.25488;936.1086;;;;
2022/09/02 10:14:04;;;;;;;2.7;2.5;;;;;;;23.62;52.03906;936.1086;;;;
2022/09/02 10:16:32;;;;;;;2.7;2.5;;;;;;;23.47;52.50391;936.1174;;;;
2022/09/02 10:19:02;;;;;;;2.4;2.2;;;;;;;23.47;53.73828;936.0605;;;;
2022/09/02 10:21:27;;;;;;;2.6;2.4;;;;;;;23.63;53.86426;936.0352;;;;
2022/09/02 10:23:52;;;;;;;3.5;2.3;;;;;;;24.02;51.70898;935.9576;;;;
2022/09/02 10:26:28;;;;;;;2.5;2.3;;;;;;;24.67;49.47461;935.9462;;;;
2022/09/02 10:28:46;;;;;;;3.2;2.3;;;;;;;25.33;47.81152;935.9694;;;;
2022/09/02 10:31:12;;;;;;;2.4;2.2;;;;;;;25.37;48.2168;935.9698;;;;
2022/09/02 10:33:38;;;;;;;4;2.6;;;;;;;25.2;48.89551;935.9305;;;;
2022/09/02 10:36:03;;;;;;;2.8;2.4;;;;;;;24.99;50.77148;935.9739;;;;
2022/09/02 10:38:28;;;;;;;2.9;2.3;;;;;;;25.46;47.79004;935.923;;;;
2022/09/02 10:40:52;;;;;;;2;1.9;;;;;;;25.82;47;935.91;;;;
2022/09/02 10:43:24;;;;;;;2.3;2.1;;;;;;;25.87;48.16406;935.8903;;;;
2022/09/02 10:45:49;;;;;;;2.5;2.3;;;;;;;26.07;48.62402;935.8995;;;;
2022/09/02 10:48:15;;;;;;;2.2;2;;;;;;;26.8;45.88281;935.801;;;;
2022/09/02 10:50:42;;;;;;;2.1;2;;;;;;;27.56;43.55273;935.7941;;;;
2022/09/02 10:53:12;;;;;;;2;1.9;;;;;;;27.65;46.10156;935.7247;;;;
2022/09/02 10:55:41;;;;;;;1.9;1.8;;;;;;;28.15;44.19141;935.7445;;;;
2022/09/02 10:58:02;;;;;;;2.6;2.4;;;;;;;28.4;44.2168;935.7307;;;;
2022/09/02 11:00:27;;;;;;;2.4;2;;;;;;;28.91;42.67188;935.7766;;;;
2022/09/02 11:02:54;;;;;;;1.9;1.8;;;;;;;29.26;40.77344;935.7371;;;;
2022/09/02 11:05:21;;;;;;;2.3;2.1;;;;;;;29.28;42.25391;935.6404;;;;
2022/09/02 11:07:53;;;;;;;1.9;1.8;;;;;;;28.96;42.28223;935.6951;;;;
2022/09/02 11:10:19;;;;;;;1.9;1.8;;;;;;;27.54;45.2002;935.6579;;;;
2022/09/02 11:12:48;;;;;;;2;1.9;;;;;;;28.87;42.41797;935.6654;;;;
2022/09/02 11:15:22;;;;;;;2.5;2;;;;;;;28.22;44.37598;935.6404;;;;
2022/09/02 11:17:47;;;;;;;2.1;1.9;;;;;;;28.86;42.45215;935.6858;;;;
2022/09/02 11:20:14;;;;;;;2.4;1.7;;;;;;;29.55;40.01367;935.6342;;;;
2022/09/02 11:22:43;;;;;;;2;1.8;;;;;;;30.13;39.26563;935.634;;;;
2022/09/02 11:25:16;;;;;;;2.2;1.7;;;;;;;30.7;38.73047;935.5783;;;;
2022/09/02 11:27:40;;;;;;;1.8;1.7;;;;;;;30.47;38.17285;935.6089;;;;
2022/09/02 11:30:05;;;;;;;2;1.8;;;;;;;30.46;37.51465;935.5862;;;;
2022/09/02 11:32:30;;;;;;;2.1;1.9;;;;;;;30.1;37.99805;935.5261;;;;
2022/09/02 11:34:56;;;;;;;1.7;1.6;;;;;;;28.52;40.94531;935.4694;;;;
2022/09/02 11:37:21;;;;;;;1.9;1.8;;;;;;;28.5;42.42969;935.5144;;;;
2022/09/02 11:39:48;;;;;;;2.6;1.9;;;;;;;28.65;41.18262;935.5474;;;;
2022/09/02 11:42:14;;;;;;;1.9;1.8;;;;;;;29.17;40.46973;935.5332;;;;
2022/09/02 11:44:40;;;;;;;1.8;1.7;;;;;;;28.54;41.875;935.51;;;;
2022/09/02 11:47:06;;;;;;;2;1.9;;;;;;;28.4;41.67188;935.4931;;;;
2022/09/02 11:49:32;;;;;;;1.8;1.7;;;;;;;28.31;43.95801;935.4963;;;;
2022/09/02 11:52:00;;;;;;;3;2;;;;;;;28.88;41.37109;935.5244;;;;
2022/09/02 11:54:27;;;;;;;3.2;1.9;;;;;;;28.61;42.56055;935.4281;;;;
2022/09/02 11:56:52;;;;;;;3;1.9;;;;;;;28.67;42.37402;935.5002;;;;
2022/09/02 11:59:17;;;;;;;2.2;2;;;;;;;28.14;43.92969;935.4353;;;;
2022/09/02 12:01:42;;;;;;;2.2;2;;;;;;;28.7;43.85352;935.4965;;;;
2022/09/02 12:04:10;;;;;;;2.8;1.9;;;;;;;29.37;41.53613;935.5256;;;;
2022/09/02 12:06:40;;;;;;;1.9;1.8;;;;;;;30.39;39.77832;935.5631;;;;
2022/09/02 12:09:08;;;;;;;1.9;1.8;;;;;;;30.11;39.53809;935.524;;;;
2022/09/02 12:11:36;;;;;;;2;1.8;;;;;;;29.96;39.72754;935.5109;;;;
2022/09/02 12:13:58;;;;;;;2.9;2.1;;;;;;;30.38;38.3916;935.509;;;;
2022/09/02 12:16:28;;;;;;;2.3;2;;;;;;;30.18;39.99805;935.4885;;;;
2022/09/02 12:18:54;;;;;;;2.3;2.2;;;;;;;29.77;40.46289;935.4592;;;;
2022/09/02 12:21:19;;;;;;;3.2;1.8;;;;;;;30.51;39.95605;935.435;;;;
2022/09/02 12:23:43;;;;;;;2.1;1.8;;;;;;;30.1;39.3584;935.4384;;;;
2022/09/02 12:26:13;;;;;;;2.2;2;;;;;;;30.02;41.47559;935.4875;;;;
2022/09/02 12:28:38;;;;;;;2.3;1.9;;;;;;;30.29;39.91211;935.4281;;;;
2022/09/02 12:31:07;;;;;;;2.9;2.1;;;;;;;29.58;41.28125;935.4726;;;;
2022/09/02 12:33:33;;;;;;;2.7;2;;;;;;;29.62;42.11816;935.4438;;;;
2022/09/02 12:35:58;;;;;;;2.2;2.1;;;;;;;29.49;41.8916;935.4011;;;;
2022/09/02 12:38:28;;;;;;;1.9;1.8;;;;;;;28.73;45.0332;935.3978;;;;
2022/09/02 12:40:54;;;;;;;2.7;1.9;;;;;;;28.77;44.02637;935.3676;;;;
2022/09/02 12:43:20;;;;;;;2.7;2.1;;;;;;;28.29;45.46484;935.3217;;;;
2022/09/02 12:45:47;;;;;;;2.2;2;;;;;;;29.73;42.78418;935.3303;;;;
2022/09/02 12:48:11;;;;;;;2.1;1.9;;;;;;;30.04;40.79688;935.3535;;;;
2022/09/02 12:50:36;;;;;;;2.7;2;;;;;;;30.32;42.3877;935.2633;;;;
2022/09/02 12:53:03;;;;;;;3;2.1;;;;;;;30.49;39.55859;935.1827;;;;
2022/09/02 12:55:28;;;;;;;2.8;1.9;;;;;;;30.4;39.71875;935.2101;;;;
2022/09/02 12:57:55;;;;;;;2;1.8;;;;;;;30.39;39.52734;935.1721;;;;
2022/09/02 13:00:20;;;;;;;2.6;2.1;;;;;;;30.54;39.26563;935.1852;;;;
2022/09/02 13:02:45;;;;;;;2.8;2;;;;;;;30.97;39.09961;935.1583;;;;
2022/09/02 13:05:20;;;;;;;3.2;2.5;;;;;;;31.05;38.37695;935.0828;;;;
2022/09/02 13:07:47;;;;;;;5.4;2.9;;;;;;;30.39;39.58691;935.0334;;;;
2022/09/02 13:10:13;;;;;;;9.1;4;;;;;;;29.97;40.79102;935.1013;;;;
2022/09/02 13:12:38;;;;;;;6.5;3.2;;;;;;;29.77;41.32129;935.0192;;;;
2022/09/02 13:15:04;;;;;;;2.3;1.8;;;;;;;29.7;40.34961;934.945;;;;
2022/09/02 13:17:31;;;;;;;2.1;1.9;;;;;;;29.96;40.32422;935.01;;;;
2022/09/02 13:19:56;;;;;;;2.3;1.7;;;;;;;30.04;40.05762;934.9631;;;;
2022/09/02 13:22:22;;;;;;;2.1;2;;;;;;;30.01;39.7793;934.9641;;;;
2022/09/02 13:24:46;;;;;;;2;1.9;;;;;;;29.19;41.90039;934.9003;;;;
2022/09/02 13:27:12;;;;;;;2.2;2.1;;;;;;;27.87;43.61914;934.9117;;;;
2022/09/02 13:29:41;;;;;;;2.6;2.2;;;;;;;27.61;44.69629;934.8973;;;;
2022/09/02 13:32:06;;;;;;;2.4;2;;;;;;;27.54;45.86426;934.8795;;;;
2022/09/02 13:34:31;;;;;;;3.5;2.2;;;;;;;26.7;47.56641;934.8045;;;;
2022/09/02 13:36:56;;;;;;;2;1.9;;;;;;;26.45;49.42285;934.8315;;;;
2022/09/02 13:39:21;;;;;;;2.4;1.9;;;;;;;26.2;50.01074;934.8317;;;;
2022/09/02 13:41:48;;;;;;;2.2;2;;;;;;;25.9;48.47461;934.824;;;;
2022/09/02 13:44:14;;;;;;;2.4;2.2;;;;;;;25.75;49.15625;934.7755;;;;
2022/09/02 13:46:40;;;;;;;2.4;2.2;;;;;;;25.67;50.02148;934.7375;;;;
2022/09/02 13:49:05;;;;;;;3.1;2.2;;;;;;;24.99;51.8916;934.8495;;;;
2022/09/02 13:51:30;;;;;;;2.5;2.3;;;;;;;24.98;52.6709;934.8189;;;;
2022/09/02 13:53:56;;;;;;;2.8;2.1;;;;;;;25.14;53.52832;934.8142;;;;
2022/09/02 13:56:23;;;;;;;2.4;2.2;;;;;;;24.96;52.78613;934.8597;;;;
2022/09/02 13:58:50;;;;;;;2.4;2.2;;;;;;;25.02;52.41602;934.7917;;;;
2022/09/02 14:01:15;;;;;;;2.5;2.1;;;;;;;25.09;51.39844;934.7876;;;;
2022/09/02 14:03:47;;;;;;;4.9;2.3;;;;;;;24.82;52.49805;934.7787;;;;
2022/09/02 14:06:14;;;;;;;2.6;2.1;;;;;;;24.9;52.61426;934.7371;;;;
2022/09/02 14:08:39;;;;;;;2.6;2.4;;;;;;;24.7;52.86133;934.7841;;;;
2022/09/02 14:11:06;;;;;;;2.2;2;;;;;;;24.96;52.56152;934.7469;;;;
2022/09/02 14:13:31;;;;;;;2.2;2;;;;;;;25.03;52.91211;934.7141;;;;
2022/09/02 14:15:57;;;;;;;2.7;2.2;;;;;;;24.84;53.06738;934.7308;;;;
2022/09/02 14:18:27;;;;;;;2.5;2.3;;;;;;;24.78;53.18848;934.7144;;;;
2022/09/02 14:20:55;;;;;;;2.3;2.1;;;;;;;24.64;53.125;934.6415;;;;
2022/09/02 14:23:21;;;;;;;2.2;2.1;;;;;;;24.64;54.22266;934.6145;;;;
2022/09/02 14:25:46;;;;;;;2.7;2.3;;;;;;;24.39;54.14551;934.5552;;;;
2022/09/02 14:28:12;;;;;;;2.5;2.3;;;;;;;24.53;53.23047;934.5939;;;;
2022/09/02 14:30:37;;;;;;;2.7;2.5;;;;;;;24.42;55.03125;934.5982;;;;
2022/09/02 14:33:04;;;;;;;2.4;2.2;;;;;;;24.48;54.7793;934.6257;;;;
2022/09/02 14:35:30;;;;;;;2.8;2.2;;;;;;;24.67;53.63672;934.6316;;;;
2022/09/02 14:37:57;;;;;;;2.5;2.3;;;;;;;24.76;53.02246;934.6344;;;;
2022/09/02 14:40:20;;;;;;;3.8;2.2;;;;;;;24.7;53.79199;934.6182;;;;
2022/09/02 14:42:46;;;;;;;2.3;2.1;;;;;;;24.72;52.65137;934.639;;;;
2022/09/02 14:45:18;;;;;;;3.5;2.7;;;;;;;24.19;54.22754;934.5625;;;;
2022/09/02 14:47:47;;;;;;;3;2.7;;;;;;;24.31;54.20605;934.5417;;;;
2022/09/02 14:50:18;;;;;;;6.4;3.1;;;;;;;24.21;54.95801;934.5041;;;;
2022/09/02 14:52:46;;;;;;;4.6;2.9;;;;;;;24.21;55.34863;934.4914;;;;
2022/09/02 14:55:13;;;;;;;3.4;2.7;;;;;;;24.31;54.26465;934.537;;;;
2022/09/02 14:57:42;;;;;;;2.6;2.3;;;;;;;24.34;53.47852;934.4981;;;;
2022/09/02 15:00:16;;;;;;;2.6;2.4;;;;;;;24.14;54.31348;934.4969;;;;
2022/09/02 15:02:39;;;;;;;2.5;2.3;;;;;;;24.21;54.77148;934.4752;;;;
2022/09/02 15:05:04;;;;;;;4.1;2.1;;;;;;;24.21;54.32324;934.5364;;;;
2022/09/02 15:07:30;;;;;;;2.5;2.3;;;;;;;23.71;55.7793;934.5876;;;;
2022/09/02 15:09:57;;;;;;;4;2.5;;;;;;;23.83;54.48828;934.588;;;;
2022/09/02 15:12:23;;;;;;;3.2;2.2;;;;;;;23.76;55.06836;934.6078;;;;
2022/09/02 15:14:48;;;;;;;2.9;2.4;;;;;;;23.87;54.32813;934.574;;;;
2022/09/02 15:17:19;;;;;;;2.5;2.3;;;;;;;23.74;54.25488;934.5063;;;;
2022/09/02 15:19:50;;;;;;;2.8;2.2;;;;;;;23.76;54.80859;934.5391;;;;
2022/09/02 15:22:15;;;;;;;2.1;1.9;;;;;;;23.43;54.96973;934.5267;;;;
2022/09/02 15:24:43;;;;;;;2.4;2.2;;;;;;;23.5;55.55371;934.3783;;;;
2022/09/02 15:27:07;;;;;;;2.8;2.4;;;;;;;23.29;57.13867;934.5167;;;;
2022/09/02 15:29:36;;;;;;;7;2.5;;;;;;;23.32;56.21289;934.4642;;;;
2022/09/02 15:32:02;;;;;;;2.3;2.1;;;;;;;23.23;55.23828;934.4473;;;;
2022/09/02 15:34:26;;;;;;;2.6;2.4;;;;;;;23.17;55.37109;934.4236;;;;
2022/09/02 15:36:54;;;;;;;3;2.4;;;;;;;23.26;55.52344;934.4306;;;;
2022/09/02 15:39:19;;;;;;;2.3;2.1;;;;;;;23.31;55.24805;934.4849;;;;
2022/09/02 15:41:48;;;;;;;2.4;2.2;;;;;;;23.25;55.13477;934.5242;;;;
2022/09/02 15:44:18;;;;;;;2.3;2.1;;;;;;;23.22;55.50684;934.5731;;;;
2022/09/02 15:46:43;;;;;;;2.6;2.2;;;;;;;23.16;56.5918;934.5283;;;;
2022/09/02 15:49:10;;;;;;;2.6;2.1;;;;;;;23.19;56.09082;934.5025;;;;
2022/09/02 15:51:37;;;;;;;2.4;2.2;;;;;;;22.99;55.2666;934.4861;;;;
2022/09/02 15:54:04;;;;;;;2.2;2.1;;;;;;;23.01;56.43262;934.5173;;;;
2022/09/02 15:56:29;;;;;;;3;2.2;;;;;;;23.03;55.95313;934.5469;;;;
2022/09/02 15:58:58;;;;;;;3.1;2.2;;;;;;;23.08;56.06445;934.5115;;;;
2022/09/02 16:01:21;;;;;;;2.7;2.3;;;;;;;23;56.04297;934.4083;;;;
2022/09/02 16:03:47;;;;;;;2.4;2.2;;;;;;;22.74;56.7627;934.5148;;;;
2022/09/02 16:06:15;;;;;;;2.6;2.1;;;;;;;22.75;56.24707;934.5184;;;;
2022/09/02 16:08:40;;;;;;;2.4;2.2;;;;;;;22.79;55.89941;934.5541;;;;
2022/09/02 16:11:07;;;;;;;3.4;1.9;;;;;;;22.75;56.42285;934.5759;;;;
2022/09/02 16:13:34;;;;;;;2.6;2.4;;;;;;;22.75;56.2002;934.573;;;;
2022/09/02 16:15:59;;;;;;;2.4;2.2;;;;;;;22.53;57.25195;934.6194;;;;
2022/09/02 16:18:26;;;;;;;2.4;2.2;;;;;;;22.54;57.28809;934.5775;;;;
2022/09/02 16:20:51;;;;;;;2.4;2.2;;;;;;;22.5;56.69629;934.4992;;;;
2022/09/02 16:23:19;;;;;;;2.5;2.2;;;;;;;22.33;57.77637;934.5675;;;;
2022/09/02 16:25:44;;;;;;;4.1;2.3;;;;;;;22.26;57.63965;934.563;;;;
2022/09/02 16:28:11;;;;;;;2.4;2;;;;;;;22.19;58.38086;934.5901;;;;
2022/09/02 16:30:35;;;;;;;2.8;2.2;;;;;;;22.21;57.90234;934.5657;;;;
2022/09/02 16:33:00;;;;;;;3.1;2.2;;;;;;;22.14;58.12695;934.4902;;;;
2022/09/02 16:35:30;;;;;;;2.2;2;;;;;;;21.72;59.64063;934.5799;;;;
2022/09/02 16:37:56;;;;;;;2.8;2.1;;;;;;;21.6;59.94141;934.5803;;;;
2022/09/02 16:40:24;;;;;;;2.1;2;;;;;;;21.58;60.16113;934.5301;;;;
2022/09/02 16:42:53;;;;;;;2.7;2.3;;;;;;;21.55;60.73145;934.5139;;;;
2022/09/02 16:45:18;;;;;;;2.4;2.2;;;;;;;21.41;61.01563;934.4771;;;;
2022/09/02 16:47:49;;;;;;;2.5;2.3;;;;;;;21.28;61.24414;934.4682;;;;
2022/09/02 16:50:11;;;;;;;2.5;2.3;;;;;;;21.19;62.02832;934.4789;;;;
2022/09/02 16:52:49;;;;;;;2.5;2.3;;;;;;;21.03;62.30957;934.4372;;;;
2022/09/02 16:55:17;;;;;;;2.6;2.4;;;;;;;21.04;62.34668;934.5031;;;;
2022/09/02 16:57:46;;;;;;;2.9;2.6;;;;;;;21.04;62.4502;934.5195;;;;
2022/09/02 17:00:11;;;;;;;2.8;2.3;;;;;;;21.14;61.90332;934.4803;;;;
2022/09/02 17:02:40;;;;;;;3.2;2.2;;;;;;;21.04;62.56836;934.3834;;;;
2022/09/02 17:05:06;;;;;;;3.1;2.1;;;;;;;21.09;62.11914;934.4911;;;;
2022/09/02 17:07:30;;;;;;;2.5;2.3;;;;;;;21.06;62.53613;934.4863;;;;
2022/09/02 17:09:58;;;;;;;2.5;2.3;;;;;;;21.05;62.81543;934.4542;;;;
2022/09/02 17:12:30;;;;;;;2.7;2.2;;;;;;;21.03;62.92871;934.3217;;;;
2022/09/02 17:14:58;;;;;;;3.1;2.4;;;;;;;20.94;63.41895;934.4113;;;;
2022/09/02 17:17:24;;;;;;;3.6;2.4;;;;;;;20.87;64.15723;934.4373;;;;
2022/09/02 17:19:48;;;;;;;3.4;2.6;;;;;;;20.87;63.81836;934.4646;;;;
2022/09/02 17:22:16;;;;;;;2.4;2.2;;;;;;;20.89;64.12402;934.4244;;;;
2022/09/02 17:24:41;;;;;;;3.6;2.5;;;;;;;20.88;64.56641;934.4572;;;;
2022/09/02 17:27:07;;;;;;;2.8;2.6;;;;;;;20.86;64.61133;934.4821;;;;
2022/09/02 17:29:34;;;;;;;3.5;2.7;;;;;;;20.7;65.74414;934.5264;;;;
2022/09/02 17:31:59;;;;;;;2.6;2.4;;;;;;;20.49;67.01074;934.5672;;;;
2022/09/02 17:34:26;;;;;;;3;2.6;;;;;;;20.28;68.05273;934.6049;;;;
2022/09/02 17:36:51;;;;;;;3.4;3.1;;;;;;;20.16;68.57129;934.652;;;;
2022/09/02 17:39:18;;;;;;;3.6;2.7;;;;;;;20.02;68.95703;934.6614;;;;
2022/09/02 17:41:56;;;;;;;3.1;2.8;;;;;;;19.89;69.78906;934.6688;;;;
2022/09/02 17:44:13;;;;;;;3.1;2.9;;;;;;;19.83;70.04883;934.6367;;;;
2022/09/02 17:46:38;;;;;;;3.3;3;;;;;;;19.79;70.72949;934.5948;;;;
2022/09/02 17:49:08;;;;;;;2.7;2.5;;;;;;;19.72;70.69629;934.6309;;;;
2022/09/02 17:51:38;;;;;;;2.6;2.4;;;;;;;19.71;70.48438;934.6716;;;;
2022/09/02 17:54:03;;;;;;;3.6;2.7;;;;;;;19.71;70.4707;934.7276;;;;